Terminal Aerodrome Forecast
Issued by NWS

Home | Current Version | Previous Version | Graphics & Text | Print | Product List | Glossary Off
Versions: 1 2 3 4 5 6 7 8 9 10 11 12 13

000
FTUS41 KCLE 290540
TAFFDY
TAF
KFDY 290540Z 2906/3006 05005KT P6SM SCT120
      TEMPO 2909/2912 5SM BR
     FM291900 08006KT P6SM VCTS BKN045CB
     FM292300 09004KT P6SM BKN050 OVC100=

USA.gov is the U.S. government's official web portal to all federal, state and local government web resources and services.